ADDS METAR Data INFO
IDs: Format: Raw Decoded Include TAF

Data at: 0734 UTC 18 Oct 2017

KFOA 180715Z AUTO 00000KT 10SM CLR 06/06 A3024 RMK AO2 T00620055
KFOA 180655Z AUTO 00000KT 10SM CLR 06/05 A3024 RMK AO2 T00640054
KFOA 180635Z AUTO 00000KT 10SM CLR 06/05 A3024 RMK AO2 T00610052
KFOA 180615Z AUTO 00000KT 10SM CLR 06/05 A3024 RMK AO2 T00620051
KFOA 180555Z AUTO 00000KT 10SM CLR 07/06 A3024 RMK AO2 T00700056 10150 20067 402030046
KFOA 180535Z AUTO 00000KT 10SM CLR 07/06 A3024 RMK AO2 T00700055
KFOA 180515Z AUTO 00000KT 10SM CLR 08/06 A3024 RMK AO2 T00790058
KFOA 180455Z AUTO 00000KT 10SM CLR 08/06 A3025 RMK AO2 T00800059
KFOA 180435Z AUTO 00000KT 10SM CLR 09/06 A3025 RMK AO2 T00850057
KFOA 180415Z AUTO 00000KT 10SM CLR 09/06 A3024 RMK AO2 T00850060
KFOA 180355Z AUTO 00000KT 10SM CLR 09/06 A3025 RMK AO2 T00900055
KFOA 180335Z AUTO 00000KT 10SM CLR 10/06 A3025 RMK AO2 T01000055
KFOA 180315Z AUTO 00000KT 10SM CLR 11/06 A3025 RMK AO2 T01050055
KFOA 180255Z AUTO 00000KT 10SM CLR 10/06 A3025 RMK AO2 T00980057
KFOA 180235Z AUTO 17003KT 10SM CLR 10/06 A3025 RMK AO2 T00990057
KFOA 180215Z AUTO 19005KT 10SM CLR 11/06 A3024 RMK AO2 T01140057
KFOA 180155Z AUTO 19004KT 10SM CLR 11/06 A3023 RMK AO2 T01100058
KFOA 180135Z AUTO 00000KT 10SM CLR 12/06 A3023 RMK AO2 T01180055
KFOA 180115Z AUTO 19003KT 10SM CLR 12/06 A3023 RMK AO2 T01180060
KFOA 180055Z AUTO 18007KT 10SM CLR 13/06 A3023 RMK AO2 T01280058
KFOA 180035Z AUTO 17007KT 10SM CLR 14/06 A3023 RMK AO2 T01440057
KFOA 180015Z AUTO 18007KT 10SM CLR 15/06 A3023 RMK AO2 T01460060
KFOA 172355Z AUTO 18006KT 10SM CLR 15/06 A3023 RMK AO2 T01500059 10203 20138
KFOA 172335Z AUTO 17006KT 10SM CLR 14/07 A3022 RMK AO2 T01380066
KFOA 172315Z AUTO 15005KT 10SM CLR 16/06 A3022 RMK AO2 T01570061
KFOA 172255Z AUTO 16005KT 10SM CLR 17/06 A3022 RMK AO2 T01720061
KFOA 172235Z AUTO 18006KT 10SM CLR 18/06 A3023 RMK AO2 T01830057
KFOA 172215Z AUTO 19008KT 10SM CLR 19/05 A3023 RMK AO2 T01900053
KFOA 172155Z AUTO 19007KT 10SM CLR 20/05 A3023 RMK AO2 T02000053
KFOA 172135Z AUTO 19006KT 10SM CLR 20/05 A3024 RMK AO2 T02000050
KFOA 172115Z AUTO 17006KT 10SM CLR 20/05 A3024 RMK AO2 T02020048
KFOA 172055Z AUTO 19006KT 10SM CLR 20/04 A3024 RMK AO2 T01980044
KFOA 172035Z AUTO 16009KT 10SM CLR 20/05 A3024 RMK AO2 T02010048
KFOA 172015Z AUTO 16006KT 10SM CLR 20/05 A3025 RMK AO2 T01990052
KFOA 171955Z AUTO 20008KT 10SM CLR 20/05 A3026 RMK AO2 T01980049
KFOA 171935Z AUTO 19008KT 10SM CLR 20/05 A3027 RMK AO2 T01960049
KFOA 171915Z AUTO 23006KT 10SM CLR 20/05 A3027 RMK AO2 T01960048
KFOA 171855Z AUTO 18005KT 10SM CLR 20/05 A3029 RMK AO2 T01960049
KFOA 171835Z AUTO 21006KT 10SM CLR 19/05 A3030 RMK AO2 T01860051
KFOA 171815Z AUTO 21005KT 10SM CLR 20/05 A3031 RMK AO2 T01960054
KFOA 171755Z AUTO 17006KT 7SM CLR 19/05 A3032 RMK AO2 T01890054 10189 20046
KFOA 171735Z AUTO 21008KT 10SM CLR 19/05 A3033 RMK AO2 T01860053
KFOA 171715Z AUTO 21007KT 10SM CLR 18/05 A3034 RMK AO2 T01830051
KFOA 171655Z AUTO 21008KT 10SM CLR 18/05 A3035 RMK AO2 T01790053
KFOA 171635Z AUTO 20009G14KT 170V230 10SM CLR 18/05 A3035 RMK AO2 T01770050
KFOA 171615Z AUTO 19010KT 10SM CLR 18/05 A3035 RMK AO2 T01750051
KFOA 171555Z AUTO 18010KT 10SM CLR 17/05 A3036 RMK AO2 T01690051
KFOA 171535Z AUTO 20011KT 10SM CLR 16/05 A3036 RMK AO2 T01620049
KFOA 171515Z AUTO 20010KT 10SM CLR 16/06 A3037 RMK AO2 T01570055
KFOA 171455Z AUTO 19009KT 10SM CLR 15/06 A3037 RMK AO2 T01480063
KFOA 171435Z AUTO 20006KT 10SM CLR 13/08 A3038 RMK AO2 T01340076
KFOA 171415Z AUTO 19004KT 10SM CLR 12/07 A3038 RMK AO2 T01210069
KFOA 171355Z AUTO 20003KT 10SM CLR 11/06 A3038 RMK AO2 T01050061
KFOA 171335Z AUTO 00000KT 10SM CLR 09/07 A3038 RMK AO2 T00920065
KFOA 171315Z AUTO 00000KT 10SM CLR 08/06 A3037 RMK AO2 T00800056
KFOA 171255Z AUTO 00000KT 10SM CLR 06/05 A3037 RMK AO2 T00640051
KFOA 171235Z AUTO 00000KT 10SM CLR 05/04 A3037 RMK AO2 T00500040
KFOA 171215Z AUTO 00000KT 10SM CLR 05/04 A3036 RMK AO2 T00480038
KFOA 171155Z AUTO 00000KT 10SM CLR 05/04 A3036 RMK AO2 T00460037 10074 20046
KFOA 171135Z AUTO 00000KT 10SM CLR 05/04 A3036 RMK AO2 T00520040
KFOA 171115Z AUTO 00000KT 5SM BR CLR 06/04 A3035 RMK AO2 T00590037
KFOA 171055Z AUTO 00000KT 4SM HZ CLR 07/04 A3035 RMK AO2 T00650038
KFOA 171035Z AUTO 00000KT 7SM CLR 06/04 A3035 RMK AO2 T00600037
KFOA 171015Z AUTO 00000KT 10SM CLR 06/04 A3034 RMK AO2 T00600040
KFOA 170955Z AUTO 00000KT 10SM CLR 05/04 A3033 RMK AO2 T00540036
KFOA 170935Z AUTO 00000KT 10SM CLR 05/04 A3032 RMK AO2 T00540036
KFOA 170915Z AUTO 00000KT 10SM CLR 06/04 A3032 RMK AO2 T00570038
KFOA 170855Z AUTO 00000KT 10SM CLR 06/04 A3032 RMK AO2 T00620040
KFOA 170835Z AUTO 00000KT 10SM CLR 06/04 A3031 RMK AO2 T00570044
KFOA 170815Z AUTO 00000KT 10SM CLR 05/04 A3031 RMK AO2 T00500038
KFOA 170755Z AUTO 00000KT 10SM CLR 05/04 A3032 RMK AO2 T00510039
KFOA 170735Z AUTO 00000KT 10SM CLR 06/04 A3032 RMK AO2 T00590040
KFOA 170715Z AUTO 00000KT 10SM CLR 06/04 A3032 RMK AO2 T00550042
KFOA 170655Z AUTO 00000KT 10SM CLR 06/05 A3032 RMK AO2 T00630046
KFOA 170635Z AUTO 00000KT 10SM CLR 07/05 A3032 RMK AO2 T00650046
KFOA 170615Z AUTO 21003KT 10SM CLR 07/05 A3032 RMK AO2 T00650048
KFOA 170555Z AUTO 00000KT 10SM CLR 08/05 A3032 RMK AO2 T00750049 10139 20065 401830061
KFOA 170535Z AUTO 00000KT 10SM CLR 07/05 A3032 RMK AO2 T00660050
KFOA 170515Z AUTO 21003KT 10SM CLR 07/05 A3032 RMK AO2 T00680052
KFOA 170455Z AUTO 00000KT 10SM CLR 07/06 A3032 RMK AO2 T00690056
KFOA 170435Z AUTO 00000KT 10SM CLR 07/06 A3032 RMK AO2 T00700055
KFOA 170415Z AUTO 00000KT 10SM CLR 07/06 A3032 RMK AO2 T00710055
KFOA 170355Z AUTO 00000KT 10SM CLR 08/06 A3033 RMK AO2 T00760055
KFOA 170335Z AUTO 00000KT 10SM CLR 08/06 A3033 RMK AO2 T00820060
KFOA 170315Z AUTO 00000KT 10SM CLR 08/06 A3033 RMK AO2 T00800060
KFOA 170255Z AUTO 00000KT 10SM CLR 09/06 A3032 RMK AO2 T00900060
KFOA 170235Z AUTO 00000KT 10SM CLR 09/06 A3032 RMK AO2 T00900062
KFOA 170215Z AUTO 00000KT 10SM CLR 09/07 A3032 RMK AO2 T00900068
KFOA 170155Z AUTO 00000KT 10SM CLR 10/07 A3032 RMK AO2 T00960068
KFOA 170135Z AUTO 22003KT 10SM CLR 10/07 A3032 RMK AO2 T00980072
KFOA 170115Z AUTO 00000KT 10SM CLR 10/07 A3031 RMK AO2 T01030071
KFOA 170055Z AUTO 00000KT 7SM CLR 10/07 A3031 RMK AO2 T01000069
KFOA 170035Z AUTO 00000KT 10SM CLR 12/06 A3031 RMK AO2 T01180064
KFOA 170015Z AUTO 00000KT 10SM CLR 12/07 A3031 RMK AO2 T01180071
KFOA 162355Z AUTO 00000KT 10SM CLR 14/05 A3031 RMK AO2 T01420050 10183 20135
KFOA 162335Z AUTO 00000KT 5SM HZ CLR 14/06 A3030 RMK AO2 T01390061
KFOA 162315Z AUTO 00000KT 2SM HZ CLR 16/04 A3030 RMK AO2 T01610042
KFOA 162255Z AUTO 00000KT 10SM CLR 17/04 A3030 RMK AO2 T01660044
KFOA 162235Z AUTO 00000KT 1SM HZ VV007 18/03 A3030 RMK AO2 VIS 1/2V5 T01770032
KFOA 162215Z AUTO 00000KT 10SM CLR 18/02 A3030 RMK AO2 T01800015
KFOA 162155Z AUTO 00000KT 10SM CLR 18/03 A3031 RMK AO2 T01800029
KFOA 162135Z AUTO 21004KT 10SM CLR 18/03 A3031 RMK AO2 T01800029
KFOA 162115Z AUTO 29003KT 10SM CLR 18/03 A3032 RMK AO2 T01800029
KFOA 162055Z AUTO 35004KT 10SM CLR 18/03 A3032 RMK AO2 T01800030
KFOA 162035Z AUTO 35006KT 10SM CLR 18/03 A3032 RMK AO2 T01810032
KFOA 162015Z AUTO 31005KT 10SM CLR 18/03 A3033 RMK AO2 T01790028
KFOA 161955Z AUTO 00000KT 10SM CLR 18/04 A3033 RMK AO2 T01790037
KFOA 161935Z AUTO 28003KT 10SM CLR 18/03 A3033 RMK AO2 T01770034